sensor_id;sensor_type;location;lat;lon;timestamp;P1;durP1;ratioP1;P2;durP2;ratioP2
73951;SDS011;62304;47.662;18.324;2023-03-01T00:01:51;27.85;;;12.05;;
73951;SDS011;62304;47.662;18.324;2023-03-01T00:04:55;27.30;;;12.48;;
73951;SDS011;62304;47.662;18.324;2023-03-01T00:08:00;24.60;;;11.65;;
73951;SDS011;62304;47.662;18.324;2023-03-01T00:11:13;25.37;;;11.63;;
73951;SDS011;62304;47.662;18.324;2023-03-01T00:14:17;25.27;;;12.23;;
73951;SDS011;62304;47.662;18.324;2023-03-01T00:17:20;25.88;;;12.20;;
73951;SDS011;62304;47.662;18.324;2023-03-01T00:20:23;26.95;;;11.95;;
73951;SDS011;62304;47.662;18.324;2023-03-01T00:23:26;27.23;;;12.65;;
73951;SDS011;62304;47.662;18.324;2023-03-01T00:26:29;27.80;;;12.60;;
73951;SDS011;62304;47.662;18.324;2023-03-01T00:29:33;26.03;;;11.67;;
73951;SDS011;62304;47.662;18.324;2023-03-01T00:32:36;26.48;;;10.93;;
73951;SDS011;62304;47.662;18.324;2023-03-01T00:35:39;22.17;;;10.40;;
73951;SDS011;62304;47.662;18.324;2023-03-01T00:38:42;23.40;;;10.57;;
73951;SDS011;62304;47.662;18.324;2023-03-01T00:41:48;23.95;;;10.85;;
73951;SDS011;62304;47.662;18.324;2023-03-01T00:44:51;21.13;;;10.30;;
73951;SDS011;62304;47.662;18.324;2023-03-01T00:47:54;23.45;;;11.00;;
73951;SDS011;62304;47.662;18.324;2023-03-01T00:50:56;23.10;;;11.15;;
73951;SDS011;62304;47.662;18.324;2023-03-01T00:54:01;21.12;;;10.48;;
73951;SDS011;62304;47.662;18.324;2023-03-01T00:57:05;26.02;;;11.80;;
73951;SDS011;62304;47.662;18.324;2023-03-01T01:00:08;24.77;;;10.73;;
73951;SDS011;62304;47.662;18.324;2023-03-01T01:03:11;23.17;;;11.50;;
73951;SDS011;62304;47.662;18.324;2023-03-01T01:06:19;21.73;;;10.18;;
73951;SDS011;62304;47.662;18.324;2023-03-01T01:09:23;23.87;;;10.48;;
73951;SDS011;62304;47.662;18.324;2023-03-01T01:12:27;24.95;;;11.02;;
73951;SDS011;62304;47.662;18.324;2023-03-01T01:15:34;21.40;;;10.17;;
73951;SDS011;62304;47.662;18.324;2023-03-01T01:18:37;22.85;;;10.63;;
73951;SDS011;62304;47.662;18.324;2023-03-01T01:21:40;26.27;;;10.98;;
73951;SDS011;62304;47.662;18.324;2023-03-01T01:24:45;25.20;;;11.12;;
73951;SDS011;62304;47.662;18.324;2023-03-01T01:27:48;22.37;;;9.70;;
73951;SDS011;62304;47.662;18.324;2023-03-01T01:30:51;25.10;;;10.20;;
73951;SDS011;62304;47.662;18.324;2023-03-01T01:33:54;24.67;;;11.75;;
73951;SDS011;62304;47.662;18.324;2023-03-01T01:36:58;23.12;;;11.32;;
73951;SDS011;62304;47.662;18.324;2023-03-01T01:40:05;23.42;;;11.15;;
73951;SDS011;62304;47.662;18.324;2023-03-01T01:43:19;26.33;;;11.38;;
73951;SDS011;62304;47.662;18.324;2023-03-01T01:46:30;22.90;;;10.53;;
73951;SDS011;62304;47.662;18.324;2023-03-01T01:49:54;21.65;;;9.65;;
73951;SDS011;62304;47.662;18.324;2023-03-01T01:52:59;20.25;;;9.20;;
73951;SDS011;62304;47.662;18.324;2023-03-01T01:56:02;20.25;;;8.90;;
73951;SDS011;62304;47.662;18.324;2023-03-01T01:59:09;21.02;;;8.82;;
73951;SDS011;62304;47.662;18.324;2023-03-01T02:02:13;18.67;;;9.43;;
73951;SDS011;62304;47.662;18.324;2023-03-01T02:08:38;20.23;;;9.00;;
73951;SDS011;62304;47.662;18.324;2023-03-01T02:11:44;21.20;;;9.40;;
73951;SDS011;62304;47.662;18.324;2023-03-01T02:14:48;22.70;;;9.23;;
73951;SDS011;62304;47.662;18.324;2023-03-01T02:17:52;18.63;;;8.60;;
73951;SDS011;62304;47.662;18.324;2023-03-01T02:27:26;19.02;;;8.90;;
73951;SDS011;62304;47.662;18.324;2023-03-01T02:30:39;19.65;;;8.60;;
73951;SDS011;62304;47.662;18.324;2023-03-01T02:34:03;16.27;;;7.70;;
73951;SDS011;62304;47.662;18.324;2023-03-01T02:37:14;22.67;;;8.27;;
73951;SDS011;62304;47.662;18.324;2023-03-01T02:40:22;22.17;;;8.27;;
73951;SDS011;62304;47.662;18.324;2023-03-01T02:43:27;18.05;;;8.80;;
73951;SDS011;62304;47.662;18.324;2023-03-01T02:46:33;16.95;;;8.20;;
73951;SDS011;62304;47.662;18.324;2023-03-01T02:49:37;17.70;;;8.27;;
73951;SDS011;62304;47.662;18.324;2023-03-01T02:55:48;18.52;;;8.32;;
73951;SDS011;62304;47.662;18.324;2023-03-01T02:58:51;19.95;;;9.02;;
73951;SDS011;62304;47.662;18.324;2023-03-01T03:01:55;20.02;;;9.15;;
73951;SDS011;62304;47.662;18.324;2023-03-01T03:04:58;18.10;;;9.10;;
73951;SDS011;62304;47.662;18.324;2023-03-01T03:08:02;25.83;;;11.65;;
73951;SDS011;62304;47.662;18.324;2023-03-01T03:11:06;33.55;;;13.95;;
73951;SDS011;62304;47.662;18.324;2023-03-01T03:14:10;21.73;;;9.50;;
73951;SDS011;62304;47.662;18.324;2023-03-01T03:17:18;22.77;;;10.40;;
73951;SDS011;62304;47.662;18.324;2023-03-01T03:20:21;26.90;;;12.10;;
73951;SDS011;62304;47.662;18.324;2023-03-01T03:23:26;23.17;;;10.32;;
73951;SDS011;62304;47.662;18.324;2023-03-01T03:26:30;19.02;;;9.68;;
73951;SDS011;62304;47.662;18.324;2023-03-01T03:29:34;25.73;;;12.18;;
73951;SDS011;62304;47.662;18.324;2023-03-01T03:32:38;26.83;;;12.33;;
73951;SDS011;62304;47.662;18.324;2023-03-01T03:35:46;24.77;;;11.93;;
73951;SDS011;62304;47.662;18.324;2023-03-01T03:38:51;29.67;;;12.23;;
73951;SDS011;62304;47.662;18.324;2023-03-01T03:41:54;29.05;;;12.90;;
73951;SDS011;62304;47.662;18.324;2023-03-01T03:44:57;26.08;;;12.63;;
73951;SDS011;62304;47.662;18.324;2023-03-01T03:48:01;34.20;;;13.43;;
73951;SDS011;62304;47.662;18.324;2023-03-01T03:51:06;30.63;;;13.30;;
73951;SDS011;62304;47.662;18.324;2023-03-01T03:54:11;30.45;;;13.45;;
73951;SDS011;62304;47.662;18.324;2023-03-01T03:57:15;34.95;;;14.57;;
73951;SDS011;62304;47.662;18.324;2023-03-01T04:00:18;32.15;;;13.90;;
73951;SDS011;62304;47.662;18.324;2023-03-01T04:03:24;27.77;;;13.30;;
73951;SDS011;62304;47.662;18.324;2023-03-01T04:06:28;32.30;;;14.17;;
73951;SDS011;62304;47.662;18.324;2023-03-01T04:09:31;32.38;;;14.07;;
73951;SDS011;62304;47.662;18.324;2023-03-01T04:12:34;35.05;;;13.93;;
73951;SDS011;62304;47.662;18.324;2023-03-01T04:15:38;31.52;;;13.95;;
73951;SDS011;62304;47.662;18.324;2023-03-01T04:18:42;30.90;;;13.67;;
73951;SDS011;62304;47.662;18.324;2023-03-01T04:21:45;29.10;;;12.27;;
73951;SDS011;62304;47.662;18.324;2023-03-01T04:24:48;29.12;;;12.25;;
73951;SDS011;62304;47.662;18.324;2023-03-01T04:27:51;26.45;;;12.85;;
73951;SDS011;62304;47.662;18.324;2023-03-01T04:30:54;25.25;;;12.23;;
73951;SDS011;62304;47.662;18.324;2023-03-01T04:34:01;26.37;;;12.50;;
73951;SDS011;62304;47.662;18.324;2023-03-01T04:37:04;24.93;;;11.73;;
73951;SDS011;62304;47.662;18.324;2023-03-01T04:40:09;26.62;;;11.35;;
73951;SDS011;62304;47.662;18.324;2023-03-01T04:43:18;20.75;;;9.82;;
73951;SDS011;62304;47.662;18.324;2023-03-01T04:46:21;26.08;;;9.02;;
73951;SDS011;62304;47.662;18.324;2023-03-01T04:49:24;26.53;;;9.23;;
73951;SDS011;62304;47.662;18.324;2023-03-01T04:52:28;21.93;;;9.20;;
73951;SDS011;62304;47.662;18.324;2023-03-01T04:55:30;22.48;;;9.88;;
73951;SDS011;62304;47.662;18.324;2023-03-01T04:58:34;26.23;;;11.12;;
73951;SDS011;62304;47.662;18.324;2023-03-01T05:01:37;85.25;;;35.28;;
73951;SDS011;62304;47.662;18.324;2023-03-01T05:04:40;30.60;;;13.90;;
73951;SDS011;62304;47.662;18.324;2023-03-01T05:07:43;31.80;;;12.70;;
73951;SDS011;62304;47.662;18.324;2023-03-01T05:10:50;29.75;;;13.00;;
73951;SDS011;62304;47.662;18.324;2023-03-01T05:13:54;29.23;;;12.75;;
73951;SDS011;62304;47.662;18.324;2023-03-01T05:16:58;25.70;;;12.37;;
73951;SDS011;62304;47.662;18.324;2023-03-01T05:20:06;24.40;;;11.80;;
73951;SDS011;62304;47.662;18.324;2023-03-01T05:23:12;23.63;;;11.37;;
73951;SDS011;62304;47.662;18.324;2023-03-01T05:26:16;23.98;;;9.63;;
73951;SDS011;62304;47.662;18.324;2023-03-01T05:29:30;22.45;;;10.68;;
73951;SDS011;62304;47.662;18.324;2023-03-01T05:32:37;23.15;;;10.63;;
73951;SDS011;62304;47.662;18.324;2023-03-01T05:35:41;27.43;;;11.27;;
73951;SDS011;62304;47.662;18.324;2023-03-01T05:38:45;25.55;;;10.88;;
73951;SDS011;62304;47.662;18.324;2023-03-01T05:41:52;25.35;;;10.98;;
73951;SDS011;62304;47.662;18.324;2023-03-01T05:44:59;25.20;;;10.18;;
73951;SDS011;62304;47.662;18.324;2023-03-01T05:48:03;25.23;;;11.02;;
73951;SDS011;62304;47.662;18.324;2023-03-01T05:51:10;22.00;;;10.83;;
73951;SDS011;62304;47.662;18.324;2023-03-01T05:54:14;25.87;;;10.40;;
73951;SDS011;62304;47.662;18.324;2023-03-01T05:57:18;23.38;;;10.85;;
73951;SDS011;62304;47.662;18.324;2023-03-01T06:00:21;26.87;;;11.52;;
73951;SDS011;62304;47.662;18.324;2023-03-01T06:03:25;24.35;;;10.88;;
73951;SDS011;62304;47.662;18.324;2023-03-01T06:06:27;23.77;;;10.40;;
73951;SDS011;62304;47.662;18.324;2023-03-01T06:09:33;29.03;;;12.00;;
73951;SDS011;62304;47.662;18.324;2023-03-01T06:12:36;23.42;;;10.02;;
73951;SDS011;62304;47.662;18.324;2023-03-01T06:15:40;22.17;;;9.60;;
73951;SDS011;62304;47.662;18.324;2023-03-01T06:18:43;22.60;;;10.20;;
73951;SDS011;62304;47.662;18.324;2023-03-01T06:21:46;25.87;;;11.83;;
73951;SDS011;62304;47.662;18.324;2023-03-01T06:24:49;24.07;;;11.03;;
73951;SDS011;62304;47.662;18.324;2023-03-01T06:27:52;20.23;;;9.68;;
73951;SDS011;62304;47.662;18.324;2023-03-01T06:30:55;21.65;;;10.07;;
73951;SDS011;62304;47.662;18.324;2023-03-01T06:33:58;20.45;;;9.43;;
73951;SDS011;62304;47.662;18.324;2023-03-01T06:37:01;21.80;;;9.50;;
73951;SDS011;62304;47.662;18.324;2023-03-01T06:40:08;23.37;;;9.27;;
73951;SDS011;62304;47.662;18.324;2023-03-01T06:43:13;21.02;;;8.70;;
73951;SDS011;62304;47.662;18.324;2023-03-01T06:46:17;19.45;;;8.38;;
73951;SDS011;62304;47.662;18.324;2023-03-01T06:49:19;19.50;;;9.98;;
73951;SDS011;62304;47.662;18.324;2023-03-01T06:52:23;27.03;;;11.53;;
73951;SDS011;62304;47.662;18.324;2023-03-01T06:55:26;41.23;;;14.13;;
73951;SDS011;62304;47.662;18.324;2023-03-01T06:58:29;33.42;;;14.43;;
73951;SDS011;62304;47.662;18.324;2023-03-01T07:01:32;27.85;;;10.90;;
73951;SDS011;62304;47.662;18.324;2023-03-01T07:04:36;21.45;;;9.20;;
73951;SDS011;62304;47.662;18.324;2023-03-01T07:07:38;23.07;;;8.97;;
73951;SDS011;62304;47.662;18.324;2023-03-01T07:10:41;18.60;;;8.77;;
73951;SDS011;62304;47.662;18.324;2023-03-01T07:13:44;22.13;;;9.05;;
73951;SDS011;62304;47.662;18.324;2023-03-01T07:16:48;21.95;;;8.75;;
73951;SDS011;62304;47.662;18.324;2023-03-01T07:19:51;18.08;;;8.18;;
73951;SDS011;62304;47.662;18.324;2023-03-01T07:22:54;25.87;;;9.83;;
73951;SDS011;62304;47.662;18.324;2023-03-01T07:26:00;21.13;;;9.63;;
73951;SDS011;62304;47.662;18.324;2023-03-01T07:29:04;21.50;;;9.70;;
73951;SDS011;62304;47.662;18.324;2023-03-01T07:32:08;20.83;;;9.23;;
73951;SDS011;62304;47.662;18.324;2023-03-01T07:35:13;21.75;;;10.40;;
73951;SDS011;62304;47.662;18.324;2023-03-01T07:38:17;19.60;;;9.13;;
73951;SDS011;62304;47.662;18.324;2023-03-01T07:41:20;22.23;;;9.23;;
73951;SDS011;62304;47.662;18.324;2023-03-01T07:44:23;19.98;;;9.35;;
73951;SDS011;62304;47.662;18.324;2023-03-01T07:47:26;18.83;;;9.48;;
73951;SDS011;62304;47.662;18.324;2023-03-01T07:50:29;40.67;;;18.25;;
73951;SDS011;62304;47.662;18.324;2023-03-01T07:53:32;25.37;;;10.33;;
73951;SDS011;62304;47.662;18.324;2023-03-01T07:56:36;21.43;;;9.67;;
73951;SDS011;62304;47.662;18.324;2023-03-01T07:59:39;25.00;;;11.00;;
73951;SDS011;62304;47.662;18.324;2023-03-01T08:02:42;22.92;;;9.90;;
73951;SDS011;62304;47.662;18.324;2023-03-01T08:05:46;19.52;;;8.93;;
73951;SDS011;62304;47.662;18.324;2023-03-01T08:08:48;21.47;;;9.57;;
73951;SDS011;62304;47.662;18.324;2023-03-01T08:11:51;22.90;;;9.27;;
73951;SDS011;62304;47.662;18.324;2023-03-01T08:14:54;23.23;;;10.27;;
73951;SDS011;62304;47.662;18.324;2023-03-01T08:17:58;22.35;;;10.48;;
73951;SDS011;62304;47.662;18.324;2023-03-01T08:21:01;18.42;;;9.23;;
73951;SDS011;62304;47.662;18.324;2023-03-01T08:24:06;20.30;;;9.50;;
73951;SDS011;62304;47.662;18.324;2023-03-01T08:27:09;18.70;;;8.93;;
73951;SDS011;62304;47.662;18.324;2023-03-01T08:30:14;20.33;;;8.60;;
73951;SDS011;62304;47.662;18.324;2023-03-01T08:33:17;21.70;;;11.15;;
73951;SDS011;62304;47.662;18.324;2023-03-01T08:36:21;28.37;;;11.97;;
73951;SDS011;62304;47.662;18.324;2023-03-01T08:39:25;26.03;;;12.30;;
73951;SDS011;62304;47.662;18.324;2023-03-01T08:42:29;21.80;;;11.20;;
73951;SDS011;62304;47.662;18.324;2023-03-01T08:45:31;21.83;;;9.60;;
73951;SDS011;62304;47.662;18.324;2023-03-01T08:48:34;22.05;;;10.60;;
73951;SDS011;62304;47.662;18.324;2023-03-01T08:51:37;18.83;;;8.90;;
73951;SDS011;62304;47.662;18.324;2023-03-01T08:54:41;21.97;;;9.90;;
73951;SDS011;62304;47.662;18.324;2023-03-01T08:57:44;19.45;;;9.07;;
73951;SDS011;62304;47.662;18.324;2023-03-01T09:00:47;24.42;;;10.07;;
73951;SDS011;62304;47.662;18.324;2023-03-01T09:03:50;19.83;;;8.82;;
73951;SDS011;62304;47.662;18.324;2023-03-01T09:06:53;20.27;;;9.93;;
73951;SDS011;62304;47.662;18.324;2023-03-01T09:09:56;23.27;;;9.83;;
73951;SDS011;62304;47.662;18.324;2023-03-01T09:12:59;18.10;;;9.38;;
73951;SDS011;62304;47.662;18.324;2023-03-01T09:16:02;16.75;;;8.60;;
73951;SDS011;62304;47.662;18.324;2023-03-01T09:19:07;22.77;;;10.70;;
73951;SDS011;62304;47.662;18.324;2023-03-01T09:22:10;18.33;;;9.00;;
73951;SDS011;62304;47.662;18.324;2023-03-01T09:25:13;19.27;;;8.13;;
73951;SDS011;62304;47.662;18.324;2023-03-01T09:28:16;18.00;;;8.20;;
73951;SDS011;62304;47.662;18.324;2023-03-01T09:31:30;19.55;;;9.57;;
73951;SDS011;62304;47.662;18.324;2023-03-01T09:34:33;20.88;;;9.38;;
73951;SDS011;62304;47.662;18.324;2023-03-01T09:37:56;18.07;;;8.50;;
73951;SDS011;62304;47.662;18.324;2023-03-01T09:41:02;20.07;;;8.53;;
73951;SDS011;62304;47.662;18.324;2023-03-01T09:44:40;17.37;;;9.13;;
73951;SDS011;62304;47.662;18.324;2023-03-01T09:47:45;16.90;;;8.57;;
73951;SDS011;62304;47.662;18.324;2023-03-01T09:50:48;18.85;;;8.27;;
73951;SDS011;62304;47.662;18.324;2023-03-01T09:53:52;15.73;;;7.70;;
73951;SDS011;62304;47.662;18.324;2023-03-01T09:57:00;15.70;;;7.03;;
73951;SDS011;62304;47.662;18.324;2023-03-01T10:06:45;20.55;;;8.07;;
73951;SDS011;62304;47.662;18.324;2023-03-01T10:10:00;15.60;;;7.83;;
73951;SDS011;62304;47.662;18.324;2023-03-01T10:16:24;17.62;;;7.35;;
73951;SDS011;62304;47.662;18.324;2023-03-01T10:19:43;15.77;;;7.80;;
73951;SDS011;62304;47.662;18.324;2023-03-01T10:22:48;16.55;;;8.20;;
73951;SDS011;62304;47.662;18.324;2023-03-01T10:26:05;14.27;;;7.30;;
73951;SDS011;62304;47.662;18.324;2023-03-01T10:29:37;15.37;;;7.30;;
73951;SDS011;62304;47.662;18.324;2023-03-01T10:32:46;14.15;;;7.70;;
73951;SDS011;62304;47.662;18.324;2023-03-01T10:35:51;14.90;;;7.93;;
73951;SDS011;62304;47.662;18.324;2023-03-01T10:38:56;14.93;;;8.35;;
73951;SDS011;62304;47.662;18.324;2023-03-01T10:42:01;15.53;;;7.80;;
73951;SDS011;62304;47.662;18.324;2023-03-01T10:45:53;15.97;;;7.23;;
73951;SDS011;62304;47.662;18.324;2023-03-01T10:48:40;17.87;;;7.55;;
73951;SDS011;62304;47.662;18.324;2023-03-01T10:51:44;18.00;;;7.65;;
73951;SDS011;62304;47.662;18.324;2023-03-01T10:54:53;15.10;;;7.85;;
73951;SDS011;62304;47.662;18.324;2023-03-01T10:58:09;14.27;;;8.70;;
73951;SDS011;62304;47.662;18.324;2023-03-01T11:04:21;16.25;;;8.23;;
73951;SDS011;62304;47.662;18.324;2023-03-01T11:07:24;13.93;;;7.90;;
73951;SDS011;62304;47.662;18.324;2023-03-01T11:10:34;14.40;;;7.65;;
73951;SDS011;62304;47.662;18.324;2023-03-01T11:16:59;15.27;;;8.90;;
73951;SDS011;62304;47.662;18.324;2023-03-01T11:23:16;14.70;;;7.30;;
73951;SDS011;62304;47.662;18.324;2023-03-01T11:26:20;15.52;;;8.02;;
73951;SDS011;62304;47.662;18.324;2023-03-01T11:29:27;16.67;;;8.60;;
73951;SDS011;62304;47.662;18.324;2023-03-01T11:42:49;17.23;;;7.15;;
73951;SDS011;62304;47.662;18.324;2023-03-01T11:46:07;19.70;;;10.07;;
73951;SDS011;62304;47.662;18.324;2023-03-01T11:50:16;15.20;;;7.90;;
73951;SDS011;62304;47.662;18.324;2023-03-01T11:53:09;14.95;;;7.60;;
73951;SDS011;62304;47.662;18.324;2023-03-01T11:59:54;15.82;;;7.12;;
73951;SDS011;62304;47.662;18.324;2023-03-01T12:06:31;13.33;;;6.43;;
73951;SDS011;62304;47.662;18.324;2023-03-01T12:14:13;16.37;;;8.00;;
73951;SDS011;62304;47.662;18.324;2023-03-01T12:21:14;12.33;;;5.83;;
73951;SDS011;62304;47.662;18.324;2023-03-01T12:24:34;15.40;;;7.30;;
73951;SDS011;62304;47.662;18.324;2023-03-01T12:28:16;16.50;;;8.75;;
73951;SDS011;62304;47.662;18.324;2023-03-01T12:35:04;15.63;;;7.07;;
73951;SDS011;62304;47.662;18.324;2023-03-01T12:38:32;14.17;;;6.70;;
73951;SDS011;62304;47.662;18.324;2023-03-01T12:51:50;13.93;;;6.28;;
73951;SDS011;62304;47.662;18.324;2023-03-01T12:55:00;12.40;;;6.17;;
73951;SDS011;62304;47.662;18.324;2023-03-01T13:05:16;11.18;;;5.07;;
73951;SDS011;62304;47.662;18.324;2023-03-01T13:12:41;11.93;;;4.93;;
73951;SDS011;62304;47.662;18.324;2023-03-01T13:15:50;15.60;;;6.23;;
73951;SDS011;62304;47.662;18.324;2023-03-01T13:22:34;14.93;;;7.05;;
73951;SDS011;62304;47.662;18.324;2023-03-01T13:29:01;11.10;;;5.83;;
73951;SDS011;62304;47.662;18.324;2023-03-01T13:32:04;11.37;;;5.17;;
73951;SDS011;62304;47.662;18.324;2023-03-01T13:42:00;13.07;;;6.50;;
73951;SDS011;62304;47.662;18.324;2023-03-01T13:48:42;11.73;;;5.47;;
73951;SDS011;62304;47.662;18.324;2023-03-01T13:51:48;14.48;;;6.68;;
73951;SDS011;62304;47.662;18.324;2023-03-01T13:54:52;11.73;;;6.40;;
73951;SDS011;62304;47.662;18.324;2023-03-01T13:57:57;15.15;;;6.03;;
73951;SDS011;62304;47.662;18.324;2023-03-01T14:01:04;12.93;;;6.17;;
73951;SDS011;62304;47.662;18.324;2023-03-01T14:04:18;10.27;;;4.97;;
73951;SDS011;62304;47.662;18.324;2023-03-01T14:07:25;9.23;;;5.10;;
73951;SDS011;62304;47.662;18.324;2023-03-01T14:10:36;13.68;;;6.05;;
73951;SDS011;62304;47.662;18.324;2023-03-01T14:14:04;11.10;;;5.35;;
73951;SDS011;62304;47.662;18.324;2023-03-01T14:20:43;13.37;;;6.00;;
73951;SDS011;62304;47.662;18.324;2023-03-01T14:23:53;13.75;;;5.90;;
73951;SDS011;62304;47.662;18.324;2023-03-01T14:26:56;12.88;;;5.60;;
73951;SDS011;62304;47.662;18.324;2023-03-01T14:30:01;13.18;;;5.70;;
73951;SDS011;62304;47.662;18.324;2023-03-01T14:33:17;13.53;;;5.40;;
73951;SDS011;62304;47.662;18.324;2023-03-01T14:36:26;14.10;;;5.27;;
73951;SDS011;62304;47.662;18.324;2023-03-01T14:39:31;11.60;;;5.40;;
73951;SDS011;62304;47.662;18.324;2023-03-01T14:42:35;14.63;;;5.68;;
73951;SDS011;62304;47.662;18.324;2023-03-01T14:45:38;9.63;;;5.05;;
73951;SDS011;62304;47.662;18.324;2023-03-01T14:48:42;16.60;;;5.83;;
73951;SDS011;62304;47.662;18.324;2023-03-01T14:55:04;13.10;;;6.20;;
73951;SDS011;62304;47.662;18.324;2023-03-01T14:58:11;18.77;;;6.85;;
73951;SDS011;62304;47.662;18.324;2023-03-01T15:01:16;15.50;;;5.65;;
73951;SDS011;62304;47.662;18.324;2023-03-01T15:04:20;12.40;;;5.93;;
73951;SDS011;62304;47.662;18.324;2023-03-01T15:07:26;12.43;;;5.27;;
73951;SDS011;62304;47.662;18.324;2023-03-01T15:10:34;13.95;;;6.07;;
73951;SDS011;62304;47.662;18.324;2023-03-01T15:13:39;11.77;;;5.57;;
73951;SDS011;62304;47.662;18.324;2023-03-01T15:16:43;14.90;;;6.80;;
73951;SDS011;62304;47.662;18.324;2023-03-01T15:19:47;14.10;;;6.57;;
73951;SDS011;62304;47.662;18.324;2023-03-01T15:22:50;12.50;;;6.00;;
73951;SDS011;62304;47.662;18.324;2023-03-01T15:25:53;11.40;;;5.57;;
73951;SDS011;62304;47.662;18.324;2023-03-01T15:29:00;13.30;;;5.75;;
73951;SDS011;62304;47.662;18.324;2023-03-01T15:32:23;16.67;;;7.43;;
73951;SDS011;62304;47.662;18.324;2023-03-01T15:35:38;12.87;;;6.03;;
73951;SDS011;62304;47.662;18.324;2023-03-01T15:45:33;12.85;;;6.68;;
73951;SDS011;62304;47.662;18.324;2023-03-01T15:48:36;17.17;;;6.15;;
73951;SDS011;62304;47.662;18.324;2023-03-01T15:51:40;14.23;;;7.40;;
73951;SDS011;62304;47.662;18.324;2023-03-01T15:54:43;15.10;;;8.37;;
73951;SDS011;62304;47.662;18.324;2023-03-01T15:57:46;21.52;;;9.60;;
73951;SDS011;62304;47.662;18.324;2023-03-01T16:00:50;13.60;;;7.15;;
73951;SDS011;62304;47.662;18.324;2023-03-01T16:04:03;13.25;;;5.68;;
73951;SDS011;62304;47.662;18.324;2023-03-01T16:07:08;12.63;;;6.53;;
73951;SDS011;62304;47.662;18.324;2023-03-01T16:10:12;15.10;;;6.17;;
73951;SDS011;62304;47.662;18.324;2023-03-01T16:13:16;14.13;;;7.62;;
73951;SDS011;62304;47.662;18.324;2023-03-01T16:16:20;16.75;;;7.03;;
73951;SDS011;62304;47.662;18.324;2023-03-01T16:19:25;17.52;;;7.53;;
73951;SDS011;62304;47.662;18.324;2023-03-01T16:22:28;17.67;;;6.80;;
73951;SDS011;62304;47.662;18.324;2023-03-01T16:25:33;13.73;;;7.53;;
73951;SDS011;62304;47.662;18.324;2023-03-01T16:28:38;13.88;;;7.07;;
73951;SDS011;62304;47.662;18.324;2023-03-01T16:31:43;16.85;;;7.57;;
73951;SDS011;62304;47.662;18.324;2023-03-01T16:34:47;22.80;;;11.60;;
73951;SDS011;62304;47.662;18.324;2023-03-01T16:37:51;20.80;;;11.40;;
73951;SDS011;62304;47.662;18.324;2023-03-01T16:40:58;22.27;;;11.50;;
73951;SDS011;62304;47.662;18.324;2023-03-01T16:44:00;29.55;;;13.10;;
73951;SDS011;62304;47.662;18.324;2023-03-01T16:47:03;38.95;;;13.43;;
73951;SDS011;62304;47.662;18.324;2023-03-01T16:50:06;38.72;;;13.00;;
73951;SDS011;62304;47.662;18.324;2023-03-01T16:53:10;32.50;;;13.37;;
73951;SDS011;62304;47.662;18.324;2023-03-01T16:56:14;28.07;;;12.80;;
73951;SDS011;62304;47.662;18.324;2023-03-01T16:59:18;32.50;;;12.70;;
73951;SDS011;62304;47.662;18.324;2023-03-01T17:02:22;26.48;;;11.43;;
73951;SDS011;62304;47.662;18.324;2023-03-01T17:05:25;24.48;;;10.98;;
73951;SDS011;62304;47.662;18.324;2023-03-01T17:08:29;19.30;;;9.53;;
73951;SDS011;62304;47.662;18.324;2023-03-01T17:11:33;21.27;;;9.17;;
73951;SDS011;62304;47.662;18.324;2023-03-01T17:14:37;22.23;;;9.48;;
73951;SDS011;62304;47.662;18.324;2023-03-01T17:17:44;21.35;;;9.65;;
73951;SDS011;62304;47.662;18.324;2023-03-01T17:20:47;21.00;;;10.10;;
73951;SDS011;62304;47.662;18.324;2023-03-01T17:23:51;24.10;;;10.60;;
73951;SDS011;62304;47.662;18.324;2023-03-01T17:26:59;23.83;;;11.23;;
73951;SDS011;62304;47.662;18.324;2023-03-01T17:30:03;27.35;;;13.43;;
73951;SDS011;62304;47.662;18.324;2023-03-01T17:33:07;28.58;;;14.85;;
73951;SDS011;62304;47.662;18.324;2023-03-01T17:36:14;33.88;;;14.52;;
73951;SDS011;62304;47.662;18.324;2023-03-01T17:39:18;29.33;;;14.43;;
73951;SDS011;62304;47.662;18.324;2023-03-01T17:42:33;32.53;;;15.03;;
73951;SDS011;62304;47.662;18.324;2023-03-01T17:45:37;38.95;;;16.60;;
73951;SDS011;62304;47.662;18.324;2023-03-01T17:48:41;38.42;;;17.10;;
73951;SDS011;62304;47.662;18.324;2023-03-01T17:51:44;39.15;;;17.73;;
73951;SDS011;62304;47.662;18.324;2023-03-01T17:54:48;39.93;;;19.90;;
73951;SDS011;62304;47.662;18.324;2023-03-01T17:57:52;40.70;;;18.97;;
73951;SDS011;62304;47.662;18.324;2023-03-01T18:01:05;39.08;;;17.65;;
73951;SDS011;62304;47.662;18.324;2023-03-01T18:04:13;33.78;;;16.60;;
73951;SDS011;62304;47.662;18.324;2023-03-01T18:07:16;35.75;;;16.77;;
73951;SDS011;62304;47.662;18.324;2023-03-01T18:10:21;33.53;;;15.40;;
73951;SDS011;62304;47.662;18.324;2023-03-01T18:13:26;31.93;;;15.57;;
73951;SDS011;62304;47.662;18.324;2023-03-01T18:16:33;33.30;;;15.23;;
73951;SDS011;62304;47.662;18.324;2023-03-01T18:19:38;37.22;;;16.10;;
73951;SDS011;62304;47.662;18.324;2023-03-01T18:22:43;32.00;;;15.00;;
73951;SDS011;62304;47.662;18.324;2023-03-01T18:25:47;26.37;;;13.57;;
73951;SDS011;62304;47.662;18.324;2023-03-01T18:28:52;28.53;;;13.10;;
73951;SDS011;62304;47.662;18.324;2023-03-01T18:31:56;25.50;;;12.18;;
73951;SDS011;62304;47.662;18.324;2023-03-01T18:35:00;26.90;;;12.95;;
73951;SDS011;62304;47.662;18.324;2023-03-01T18:38:04;25.88;;;13.05;;
73951;SDS011;62304;47.662;18.324;2023-03-01T18:41:08;25.10;;;12.77;;
73951;SDS011;62304;47.662;18.324;2023-03-01T18:44:12;30.73;;;13.23;;
73951;SDS011;62304;47.662;18.324;2023-03-01T18:47:16;40.83;;;15.70;;
73951;SDS011;62304;47.662;18.324;2023-03-01T18:50:20;32.53;;;15.98;;
73951;SDS011;62304;47.662;18.324;2023-03-01T18:53:25;41.88;;;16.62;;
73951;SDS011;62304;47.662;18.324;2023-03-01T18:56:30;37.50;;;18.23;;
73951;SDS011;62304;47.662;18.324;2023-03-01T18:59:35;40.03;;;18.53;;
73951;SDS011;62304;47.662;18.324;2023-03-01T19:02:39;38.92;;;16.98;;
73951;SDS011;62304;47.662;18.324;2023-03-01T19:05:44;45.38;;;18.37;;
73951;SDS011;62304;47.662;18.324;2023-03-01T19:08:48;67.22;;;26.35;;
73951;SDS011;62304;47.662;18.324;2023-03-01T19:11:54;91.27;;;36.90;;
73951;SDS011;62304;47.662;18.324;2023-03-01T19:15:01;76.23;;;29.43;;
73951;SDS011;62304;47.662;18.324;2023-03-01T19:18:06;76.65;;;32.10;;
73951;SDS011;62304;47.662;18.324;2023-03-01T19:21:11;72.85;;;29.75;;
73951;SDS011;62304;47.662;18.324;2023-03-01T19:24:16;74.57;;;29.35;;
73951;SDS011;62304;47.662;18.324;2023-03-01T19:27:21;73.40;;;29.47;;
73951;SDS011;62304;47.662;18.324;2023-03-01T19:30:28;62.23;;;26.93;;
73951;SDS011;62304;47.662;18.324;2023-03-01T19:33:33;64.25;;;27.15;;
73951;SDS011;62304;47.662;18.324;2023-03-01T19:36:39;53.55;;;24.87;;
73951;SDS011;62304;47.662;18.324;2023-03-01T19:39:45;57.65;;;24.52;;
73951;SDS011;62304;47.662;18.324;2023-03-01T19:42:50;59.27;;;25.13;;
73951;SDS011;62304;47.662;18.324;2023-03-01T19:45:56;55.00;;;24.03;;
73951;SDS011;62304;47.662;18.324;2023-03-01T19:49:02;54.58;;;23.15;;
73951;SDS011;62304;47.662;18.324;2023-03-01T19:52:07;49.70;;;22.55;;
73951;SDS011;62304;47.662;18.324;2023-03-01T19:55:11;45.47;;;21.87;;